sensor_id;sensor_type;location;lat;lon;timestamp;temperature;humidity
15384;DHT22;7790;53.022;12.968;2023-04-12T00:01:35;22.80;42.60
15384;DHT22;7790;53.022;12.968;2023-04-12T00:05:36;22.70;42.70
15384;DHT22;7790;53.022;12.968;2023-04-12T00:09:37;22.60;42.70
15384;DHT22;7790;53.022;12.968;2023-04-12T00:13:39;22.60;42.90
15384;DHT22;7790;53.022;12.968;2023-04-12T00:17:40;22.50;42.90
15384;DHT22;7790;53.022;12.968;2023-04-12T00:21:42;22.40;42.90
15384;DHT22;7790;53.022;12.968;2023-04-12T00:25:43;22.40;43.00
15384;DHT22;7790;53.022;12.968;2023-04-12T00:29:45;22.30;43.10
15384;DHT22;7790;53.022;12.968;2023-04-12T00:33:45;22.30;43.10
15384;DHT22;7790;53.022;12.968;2023-04-12T00:37:46;22.40;43.00
15384;DHT22;7790;53.022;12.968;2023-04-12T00:41:47;22.50;42.90
15384;DHT22;7790;53.022;12.968;2023-04-12T00:45:48;22.60;42.60
15384;DHT22;7790;53.022;12.968;2023-04-12T00:49:49;22.70;42.50
15384;DHT22;7790;53.022;12.968;2023-04-12T00:53:52;22.70;42.40
15384;DHT22;7790;53.022;12.968;2023-04-12T00:57:56;22.80;42.40
15384;DHT22;7790;53.022;12.968;2023-04-12T01:01:59;22.80;42.30
15384;DHT22;7790;53.022;12.968;2023-04-12T01:06:11;22.80;42.30
15384;DHT22;7790;53.022;12.968;2023-04-12T01:10:40;22.80;42.30
15384;DHT22;7790;53.022;12.968;2023-04-12T01:15:16;22.80;42.40
15384;DHT22;7790;53.022;12.968;2023-04-12T01:27:41;22.50;42.60
15384;DHT22;7790;53.022;12.968;2023-04-12T01:31:58;22.50;42.70
15384;DHT22;7790;53.022;12.968;2023-04-12T01:36:00;22.50;42.60
15384;DHT22;7790;53.022;12.968;2023-04-12T01:40:02;22.70;42.60
15384;DHT22;7790;53.022;12.968;2023-04-12T01:44:05;22.80;42.50
15384;DHT22;7790;53.022;12.968;2023-04-12T01:48:11;22.80;42.30
15384;DHT22;7790;53.022;12.968;2023-04-12T01:52:18;22.90;42.40
15384;DHT22;7790;53.022;12.968;2023-04-12T01:56:21;22.90;42.50
15384;DHT22;7790;53.022;12.968;2023-04-12T02:00:24;22.80;42.50
15384;DHT22;7790;53.022;12.968;2023-04-12T02:04:27;22.80;42.60
15384;DHT22;7790;53.022;12.968;2023-04-12T02:08:29;22.70;42.60
15384;DHT22;7790;53.022;12.968;2023-04-12T02:12:30;22.60;42.60
15384;DHT22;7790;53.022;12.968;2023-04-12T02:16:31;22.50;42.50
15384;DHT22;7790;53.022;12.968;2023-04-12T02:20:34;22.50;42.70
15384;DHT22;7790;53.022;12.968;2023-04-12T02:24:35;22.40;42.60
15384;DHT22;7790;53.022;12.968;2023-04-12T02:28:37;22.30;42.70
15384;DHT22;7790;53.022;12.968;2023-04-12T02:32:40;22.30;42.90
15384;DHT22;7790;53.022;12.968;2023-04-12T02:36:49;22.20;42.80
15384;DHT22;7790;53.022;12.968;2023-04-12T02:40:51;22.10;42.80
15384;DHT22;7790;53.022;12.968;2023-04-12T02:44:53;22.20;42.80
15384;DHT22;7790;53.022;12.968;2023-04-12T02:48:54;22.30;42.60
15384;DHT22;7790;53.022;12.968;2023-04-12T02:53:01;22.50;42.40
15384;DHT22;7790;53.022;12.968;2023-04-12T02:57:03;22.60;42.10
15384;DHT22;7790;53.022;12.968;2023-04-12T03:01:15;22.70;41.90
15384;DHT22;7790;53.022;12.968;2023-04-12T03:05:36;22.70;41.80
15384;DHT22;7790;53.022;12.968;2023-04-12T03:09:38;22.80;41.80
15384;DHT22;7790;53.022;12.968;2023-04-12T03:13:43;22.80;41.70
15384;DHT22;7790;53.022;12.968;2023-04-12T03:17:44;22.80;41.70
15384;DHT22;7790;53.022;12.968;2023-04-12T03:21:46;22.80;41.70
15384;DHT22;7790;53.022;12.968;2023-04-12T03:25:47;22.80;41.80
15384;DHT22;7790;53.022;12.968;2023-04-12T03:30:06;22.90;41.80
15384;DHT22;7790;53.022;12.968;2023-04-12T03:34:11;22.90;41.80
15384;DHT22;7790;53.022;12.968;2023-04-12T03:38:17;22.90;41.90
15384;DHT22;7790;53.022;12.968;2023-04-12T03:42:18;22.80;42.30
15384;DHT22;7790;53.022;12.968;2023-04-12T03:46:20;22.70;41.90
15384;DHT22;7790;53.022;12.968;2023-04-12T03:50:28;22.70;42.00
15384;DHT22;7790;53.022;12.968;2023-04-12T03:54:31;22.60;42.20
15384;DHT22;7790;53.022;12.968;2023-04-12T03:58:37;22.50;42.10
15384;DHT22;7790;53.022;12.968;2023-04-12T04:02:40;22.50;42.20
15384;DHT22;7790;53.022;12.968;2023-04-12T04:06:43;22.50;42.20
15384;DHT22;7790;53.022;12.968;2023-04-12T04:10:45;22.40;42.10
15384;DHT22;7790;53.022;12.968;2023-04-12T04:14:46;22.30;42.70
15384;DHT22;7790;53.022;12.968;2023-04-12T04:18:58;22.30;42.80
15384;DHT22;7790;53.022;12.968;2023-04-12T04:22:59;22.30;44.40
15384;DHT22;7790;53.022;12.968;2023-04-12T04:27:00;22.20;44.50
15384;DHT22;7790;53.022;12.968;2023-04-12T04:31:03;22.30;44.40
15384;DHT22;7790;53.022;12.968;2023-04-12T04:35:07;22.30;44.30
15384;DHT22;7790;53.022;12.968;2023-04-12T04:39:21;22.40;44.30
15384;DHT22;7790;53.022;12.968;2023-04-12T04:43:22;22.40;44.30
15384;DHT22;7790;53.022;12.968;2023-04-12T04:47:27;22.50;44.10
15384;DHT22;7790;53.022;12.968;2023-04-12T04:51:31;22.40;44.20
15384;DHT22;7790;53.022;12.968;2023-04-12T04:55:35;22.50;44.10
15384;DHT22;7790;53.022;12.968;2023-04-12T04:59:37;22.50;44.10
15384;DHT22;7790;53.022;12.968;2023-04-12T05:03:50;22.50;44.10
15384;DHT22;7790;53.022;12.968;2023-04-12T05:07:53;22.40;44.30
15384;DHT22;7790;53.022;12.968;2023-04-12T05:11:56;22.30;44.50
15384;DHT22;7790;53.022;12.968;2023-04-12T05:15:58;22.20;44.60
15384;DHT22;7790;53.022;12.968;2023-04-12T05:19:59;22.20;44.50
15384;DHT22;7790;53.022;12.968;2023-04-12T05:24:01;22.20;44.80
15384;DHT22;7790;53.022;12.968;2023-04-12T05:28:03;22.20;44.80
15384;DHT22;7790;53.022;12.968;2023-04-12T05:32:04;22.20;44.80
15384;DHT22;7790;53.022;12.968;2023-04-12T05:36:05;22.10;44.80
15384;DHT22;7790;53.022;12.968;2023-04-12T05:40:07;22.10;44.80
15384;DHT22;7790;53.022;12.968;2023-04-12T05:44:11;22.10;44.80
15384;DHT22;7790;53.022;12.968;2023-04-12T05:48:12;22.00;44.80
15384;DHT22;7790;53.022;12.968;2023-04-12T05:52:13;22.00;44.90
15384;DHT22;7790;53.022;12.968;2023-04-12T05:56:14;22.00;44.90
15384;DHT22;7790;53.022;12.968;2023-04-12T06:00:19;22.10;45.20
15384;DHT22;7790;53.022;12.968;2023-04-12T06:04:21;22.20;44.50
15384;DHT22;7790;53.022;12.968;2023-04-12T06:08:22;22.20;44.20
15384;DHT22;7790;53.022;12.968;2023-04-12T06:12:23;22.30;44.00
15384;DHT22;7790;53.022;12.968;2023-04-12T06:16:25;22.40;43.90
15384;DHT22;7790;53.022;12.968;2023-04-12T06:20:26;22.40;43.90
15384;DHT22;7790;53.022;12.968;2023-04-12T06:24:28;22.50;43.90
15384;DHT22;7790;53.022;12.968;2023-04-12T06:28:28;22.70;42.90
15384;DHT22;7790;53.022;12.968;2023-04-12T06:32:30;22.70;42.50
15384;DHT22;7790;53.022;12.968;2023-04-12T06:36:33;22.60;42.70
15384;DHT22;7790;53.022;12.968;2023-04-12T06:40:34;22.50;42.60
15384;DHT22;7790;53.022;12.968;2023-04-12T06:44:34;22.50;43.20
15384;DHT22;7790;53.022;12.968;2023-04-12T06:48:35;22.50;45.50
15384;DHT22;7790;53.022;12.968;2023-04-12T06:52:36;22.20;45.10
15384;DHT22;7790;53.022;12.968;2023-04-12T06:56:37;22.10;45.60
15384;DHT22;7790;53.022;12.968;2023-04-12T07:00:39;22.10;45.50
15384;DHT22;7790;53.022;12.968;2023-04-12T07:04:40;22.10;45.40
15384;DHT22;7790;53.022;12.968;2023-04-12T07:08:41;22.00;45.20
15384;DHT22;7790;53.022;12.968;2023-04-12T07:12:45;22.00;45.10
15384;DHT22;7790;53.022;12.968;2023-04-12T07:16:46;22.00;45.10
15384;DHT22;7790;53.022;12.968;2023-04-12T07:20:47;22.10;44.70
15384;DHT22;7790;53.022;12.968;2023-04-12T07:24:50;22.00;44.90
15384;DHT22;7790;53.022;12.968;2023-04-12T07:28:51;21.90;44.80
15384;DHT22;7790;53.022;12.968;2023-04-12T07:32:51;21.50;41.80
15384;DHT22;7790;53.022;12.968;2023-04-12T07:36:54;21.50;44.40
15384;DHT22;7790;53.022;12.968;2023-04-12T07:40:55;21.60;44.60
15384;DHT22;7790;53.022;12.968;2023-04-12T07:44:56;21.60;44.70
15384;DHT22;7790;53.022;12.968;2023-04-12T07:48:58;21.60;44.60
15384;DHT22;7790;53.022;12.968;2023-04-12T07:53:19;21.60;44.60
15384;DHT22;7790;53.022;12.968;2023-04-12T07:57:20;21.60;44.60
15384;DHT22;7790;53.022;12.968;2023-04-12T08:01:21;21.60;44.40
15384;DHT22;7790;53.022;12.968;2023-04-12T08:05:22;21.60;44.40
15384;DHT22;7790;53.022;12.968;2023-04-12T08:09:23;21.50;44.60
15384;DHT22;7790;53.022;12.968;2023-04-12T08:13:24;21.50;44.50
15384;DHT22;7790;53.022;12.968;2023-04-12T08:17:25;21.50;44.30
15384;DHT22;7790;53.022;12.968;2023-04-12T08:21:28;21.60;44.30
15384;DHT22;7790;53.022;12.968;2023-04-12T08:25:29;21.60;44.10
15384;DHT22;7790;53.022;12.968;2023-04-12T08:29:30;21.60;44.10
15384;DHT22;7790;53.022;12.968;2023-04-12T08:33:31;21.60;44.00
15384;DHT22;7790;53.022;12.968;2023-04-12T08:37:35;21.60;44.00
15384;DHT22;7790;53.022;12.968;2023-04-12T08:41:38;21.60;44.00
15384;DHT22;7790;53.022;12.968;2023-04-12T08:45:41;21.60;44.20
15384;DHT22;7790;53.022;12.968;2023-04-12T08:49:43;21.60;43.90
15384;DHT22;7790;53.022;12.968;2023-04-12T08:53:44;21.60;44.10
15384;DHT22;7790;53.022;12.968;2023-04-12T08:57:45;21.60;44.10
15384;DHT22;7790;53.022;12.968;2023-04-12T09:01:47;21.60;44.10
15384;DHT22;7790;53.022;12.968;2023-04-12T09:05:48;21.50;42.70
15384;DHT22;7790;53.022;12.968;2023-04-12T09:09:49;21.50;43.70
15384;DHT22;7790;53.022;12.968;2023-04-12T09:13:50;21.60;43.70
15384;DHT22;7790;53.022;12.968;2023-04-12T09:18:10;21.70;44.10
15384;DHT22;7790;53.022;12.968;2023-04-12T09:22:13;21.70;43.60
15384;DHT22;7790;53.022;12.968;2023-04-12T09:26:27;21.60;43.60
15384;DHT22;7790;53.022;12.968;2023-04-12T09:30:28;21.60;43.90
15384;DHT22;7790;53.022;12.968;2023-04-12T09:34:30;21.60;43.90
15384;DHT22;7790;53.022;12.968;2023-04-12T09:38:32;21.50;44.50
15384;DHT22;7790;53.022;12.968;2023-04-12T09:42:33;21.50;44.30
15384;DHT22;7790;53.022;12.968;2023-04-12T09:46:35;21.50;44.10
15384;DHT22;7790;53.022;12.968;2023-04-12T09:50:36;21.50;44.10
15384;DHT22;7790;53.022;12.968;2023-04-12T09:54:44;21.50;43.90
15384;DHT22;7790;53.022;12.968;2023-04-12T09:58:46;21.70;43.50
15384;DHT22;7790;53.022;12.968;2023-04-12T10:02:49;21.70;43.10
15384;DHT22;7790;53.022;12.968;2023-04-12T10:06:51;21.60;43.90
15384;DHT22;7790;53.022;12.968;2023-04-12T10:10:52;21.60;43.70
15384;DHT22;7790;53.022;12.968;2023-04-12T10:14:54;21.50;44.00
15384;DHT22;7790;53.022;12.968;2023-04-12T10:18:56;21.60;43.80
15384;DHT22;7790;53.022;12.968;2023-04-12T10:23:00;21.60;43.70
15384;DHT22;7790;53.022;12.968;2023-04-12T10:27:03;21.60;43.30
15384;DHT22;7790;53.022;12.968;2023-04-12T10:31:29;21.40;43.10
15384;DHT22;7790;53.022;12.968;2023-04-12T10:35:49;21.30;43.20
15384;DHT22;7790;53.022;12.968;2023-04-12T10:39:53;21.30;43.10
15384;DHT22;7790;53.022;12.968;2023-04-12T10:44:24;21.30;43.10
15384;DHT22;7790;53.022;12.968;2023-04-12T10:52:31;21.30;43.50
15384;DHT22;7790;53.022;12.968;2023-04-12T10:56:41;21.20;43.80
15384;DHT22;7790;53.022;12.968;2023-04-12T11:05:08;21.20;43.90
15384;DHT22;7790;53.022;12.968;2023-04-12T11:13:35;21.20;44.00
15384;DHT22;7790;53.022;12.968;2023-04-12T11:17:36;21.20;44.00
15384;DHT22;7790;53.022;12.968;2023-04-12T11:21:37;21.20;43.80
15384;DHT22;7790;53.022;12.968;2023-04-12T11:25:40;21.10;43.90
15384;DHT22;7790;53.022;12.968;2023-04-12T11:29:42;21.20;44.10
15384;DHT22;7790;53.022;12.968;2023-04-12T11:33:43;21.20;43.90
15384;DHT22;7790;53.022;12.968;2023-04-12T11:37:44;21.20;43.70
15384;DHT22;7790;53.022;12.968;2023-04-12T11:41:46;21.20;43.60
15384;DHT22;7790;53.022;12.968;2023-04-12T11:45:47;21.20;43.80
15384;DHT22;7790;53.022;12.968;2023-04-12T11:49:50;21.20;43.80
15384;DHT22;7790;53.022;12.968;2023-04-12T11:53:52;21.10;43.80
15384;DHT22;7790;53.022;12.968;2023-04-12T11:57:53;21.10;43.90
15384;DHT22;7790;53.022;12.968;2023-04-12T12:01:55;21.10;44.60
15384;DHT22;7790;53.022;12.968;2023-04-12T12:05:56;21.10;43.70
15384;DHT22;7790;53.022;12.968;2023-04-12T12:09:57;21.00;43.90
15384;DHT22;7790;53.022;12.968;2023-04-12T12:14:00;20.80;44.10
15384;DHT22;7790;53.022;12.968;2023-04-12T12:18:00;20.90;43.80
15384;DHT22;7790;53.022;12.968;2023-04-12T12:26:23;20.90;44.20
15384;DHT22;7790;53.022;12.968;2023-04-12T12:30:24;20.90;44.10
15384;DHT22;7790;53.022;12.968;2023-04-12T12:34:25;20.90;44.00
15384;DHT22;7790;53.022;12.968;2023-04-12T12:38:34;20.80;44.10
15384;DHT22;7790;53.022;12.968;2023-04-12T12:42:35;20.80;44.00
15384;DHT22;7790;53.022;12.968;2023-04-12T12:46:36;20.80;44.20
15384;DHT22;7790;53.022;12.968;2023-04-12T12:50:38;20.80;44.10
15384;DHT22;7790;53.022;12.968;2023-04-12T12:54:38;20.70;44.60
15384;DHT22;7790;53.022;12.968;2023-04-12T12:58:40;20.70;44.10
15384;DHT22;7790;53.022;12.968;2023-04-12T13:02:42;20.70;43.80
15384;DHT22;7790;53.022;12.968;2023-04-12T13:06:42;20.80;43.60
15384;DHT22;7790;53.022;12.968;2023-04-12T13:10:43;20.90;43.50
15384;DHT22;7790;53.022;12.968;2023-04-12T13:14:44;21.00;43.20
15384;DHT22;7790;53.022;12.968;2023-04-12T13:18:45;21.20;42.80
15384;DHT22;7790;53.022;12.968;2023-04-12T13:22:46;21.30;42.60
15384;DHT22;7790;53.022;12.968;2023-04-12T13:26:47;21.30;42.50
15384;DHT22;7790;53.022;12.968;2023-04-12T13:30:47;21.40;42.50
15384;DHT22;7790;53.022;12.968;2023-04-12T13:34:50;21.40;42.50
15384;DHT22;7790;53.022;12.968;2023-04-12T13:38:51;21.40;42.80
15384;DHT22;7790;53.022;12.968;2023-04-12T13:42:52;21.30;42.80
15384;DHT22;7790;53.022;12.968;2023-04-12T13:46:53;21.30;42.90
15384;DHT22;7790;53.022;12.968;2023-04-12T13:50:54;21.20;42.90
15384;DHT22;7790;53.022;12.968;2023-04-12T13:54:56;21.20;42.80
15384;DHT22;7790;53.022;12.968;2023-04-12T13:58:58;21.20;43.00
15384;DHT22;7790;53.022;12.968;2023-04-12T14:02:58;21.10;42.90
15384;DHT22;7790;53.022;12.968;2023-04-12T14:06:59;21.10;43.00
15384;DHT22;7790;53.022;12.968;2023-04-12T14:11:02;21.00;43.10
15384;DHT22;7790;53.022;12.968;2023-04-12T14:15:03;21.00;42.70
15384;DHT22;7790;53.022;12.968;2023-04-12T14:19:04;21.00;42.40
15384;DHT22;7790;53.022;12.968;2023-04-12T14:23:05;21.00;42.20
15384;DHT22;7790;53.022;12.968;2023-04-12T14:27:06;21.00;42.30
15384;DHT22;7790;53.022;12.968;2023-04-12T14:31:07;21.00;42.90
15384;DHT22;7790;53.022;12.968;2023-04-12T14:35:08;20.90;42.70
15384;DHT22;7790;53.022;12.968;2023-04-12T14:39:09;21.00;42.50
15384;DHT22;7790;53.022;12.968;2023-04-12T14:43:11;21.00;42.20
15384;DHT22;7790;53.022;12.968;2023-04-12T14:47:11;20.60;41.10
15384;DHT22;7790;53.022;12.968;2023-04-12T14:51:12;20.80;41.50
15384;DHT22;7790;53.022;12.968;2023-04-12T14:55:13;20.90;42.00
15384;DHT22;7790;53.022;12.968;2023-04-12T14:59:14;20.80;42.30
15384;DHT22;7790;53.022;12.968;2023-04-12T15:03:15;20.90;42.20
15384;DHT22;7790;53.022;12.968;2023-04-12T15:07:16;21.00;41.80
15384;DHT22;7790;53.022;12.968;2023-04-12T15:11:17;21.20;41.90
15384;DHT22;7790;53.022;12.968;2023-04-12T15:15:19;21.40;41.80
15384;DHT22;7790;53.022;12.968;2023-04-12T15:19:20;21.50;41.90
15384;DHT22;7790;53.022;12.968;2023-04-12T15:23:24;21.50;41.90
15384;DHT22;7790;53.022;12.968;2023-04-12T15:27:25;21.50;41.80
15384;DHT22;7790;53.022;12.968;2023-04-12T15:31:27;21.50;41.80
15384;DHT22;7790;53.022;12.968;2023-04-12T15:35:28;21.50;42.00
15384;DHT22;7790;53.022;12.968;2023-04-12T15:39:28;21.50;42.10
15384;DHT22;7790;53.022;12.968;2023-04-12T15:43:29;21.40;43.00
15384;DHT22;7790;53.022;12.968;2023-04-12T15:47:30;21.30;42.30
15384;DHT22;7790;53.022;12.968;2023-04-12T15:51:32;21.30;42.60
15384;DHT22;7790;53.022;12.968;2023-04-12T15:55:34;21.20;42.70
15384;DHT22;7790;53.022;12.968;2023-04-12T15:59:36;21.10;42.70
15384;DHT22;7790;53.022;12.968;2023-04-12T16:03:37;21.10;43.10
15384;DHT22;7790;53.022;12.968;2023-04-12T16:07:39;21.00;42.80
15384;DHT22;7790;53.022;12.968;2023-04-12T16:11:40;21.00;42.80
15384;DHT22;7790;53.022;12.968;2023-04-12T16:15:43;20.90;42.70
15384;DHT22;7790;53.022;12.968;2023-04-12T16:19:44;20.90;42.70
15384;DHT22;7790;53.022;12.968;2023-04-12T16:23:47;20.80;43.00
15384;DHT22;7790;53.022;12.968;2023-04-12T16:27:48;20.90;42.50
15384;DHT22;7790;53.022;12.968;2023-04-12T16:31:49;20.80;42.80
15384;DHT22;7790;53.022;12.968;2023-04-12T16:35:51;20.80;42.50
15384;DHT22;7790;53.022;12.968;2023-04-12T16:39:52;20.80;42.50
15384;DHT22;7790;53.022;12.968;2023-04-12T16:43:53;20.80;42.80
15384;DHT22;7790;53.022;12.968;2023-04-12T16:47:57;20.70;42.90
15384;DHT22;7790;53.022;12.968;2023-04-12T16:51:57;20.70;43.20
15384;DHT22;7790;53.022;12.968;2023-04-12T16:55:59;20.70;42.90
15384;DHT22;7790;53.022;12.968;2023-04-12T17:00:06;20.70;42.70
15384;DHT22;7790;53.022;12.968;2023-04-12T17:04:28;20.70;42.80
15384;DHT22;7790;53.022;12.968;2023-04-12T17:08:29;20.70;42.60
15384;DHT22;7790;53.022;12.968;2023-04-12T17:12:30;20.60;42.70
15384;DHT22;7790;53.022;12.968;2023-04-12T17:16:31;20.60;42.50
15384;DHT22;7790;53.022;12.968;2023-04-12T17:20:32;19.80;42.40
15384;DHT22;7790;53.022;12.968;2023-04-12T17:24:33;20.20;42.50
15384;DHT22;7790;53.022;12.968;2023-04-12T17:28:34;20.50;42.30
15384;DHT22;7790;53.022;12.968;2023-04-12T17:32:39;20.70;42.20
15384;DHT22;7790;53.022;12.968;2023-04-12T17:36:40;20.90;42.00
15384;DHT22;7790;53.022;12.968;2023-04-12T17:40:41;20.90;42.00
15384;DHT22;7790;53.022;12.968;2023-04-12T17:44:42;21.00;41.90
15384;DHT22;7790;53.022;12.968;2023-04-12T17:48:43;21.10;42.00
15384;DHT22;7790;53.022;12.968;2023-04-12T17:52:44;21.10;41.80
15384;DHT22;7790;53.022;12.968;2023-04-12T17:56:47;21.20;41.90
15384;DHT22;7790;53.022;12.968;2023-04-12T18:00:48;21.20;41.90
15384;DHT22;7790;53.022;12.968;2023-04-12T18:04:50;21.20;41.80
15384;DHT22;7790;53.022;12.968;2023-04-12T18:08:51;21.10;41.70
15384;DHT22;7790;53.022;12.968;2023-04-12T18:12:52;21.10;41.70
15384;DHT22;7790;53.022;12.968;2023-04-12T18:16:53;21.00;41.50
15384;DHT22;7790;53.022;12.968;2023-04-12T18:20:54;21.00;42.00
15384;DHT22;7790;53.022;12.968;2023-04-12T18:24:55;21.00;41.50
15384;DHT22;7790;53.022;12.968;2023-04-12T18:28:56;20.90;41.80
15384;DHT22;7790;53.022;12.968;2023-04-12T18:32:57;20.70;41.80
15384;DHT22;7790;53.022;12.968;2023-04-12T18:36:58;20.60;42.10
15384;DHT22;7790;53.022;12.968;2023-04-12T18:40:59;20.70;41.90
15384;DHT22;7790;53.022;12.968;2023-04-12T18:45:00;20.80;41.70
15384;DHT22;7790;53.022;12.968;2023-04-12T18:49:01;20.90;41.60
15384;DHT22;7790;53.022;12.968;2023-04-12T18:53:05;20.90;41.50
15384;DHT22;7790;53.022;12.968;2023-04-12T18:57:06;20.80;41.60
15384;DHT22;7790;53.022;12.968;2023-04-12T19:01:07;20.80;42.00
15384;DHT22;7790;53.022;12.968;2023-04-12T19:05:08;20.70;41.60
15384;DHT22;7790;53.022;12.968;2023-04-12T19:09:10;20.80;41.70
15384;DHT22;7790;53.022;12.968;2023-04-12T19:13:11;20.90;41.60
15384;DHT22;7790;53.022;12.968;2023-04-12T19:17:12;20.90;41.80
15384;DHT22;7790;53.022;12.968;2023-04-12T19:21:12;21.00;41.90
15384;DHT22;7790;53.022;12.968;2023-04-12T19:25:13;21.00;41.60
15384;DHT22;7790;53.022;12.968;2023-04-12T19:29:16;21.00;41.60
15384;DHT22;7790;53.022;12.968;2023-04-12T19:33:19;21.00;41.60
15384;DHT22;7790;53.022;12.968;2023-04-12T19:37:20;20.90;41.40
15384;DHT22;7790;53.022;12.968;2023-04-12T19:41:21;20.90;41.60
15384;DHT22;7790;53.022;12.968;2023-04-12T19:45:23;20.90;41.60
15384;DHT22;7790;53.022;12.968;2023-04-12T19:49:25;20.80;41.50
15384;DHT22;7790;53.022;12.968;2023-04-12T19:53:26;20.80;41.50
15384;DHT22;7790;53.022;12.968;2023-04-12T19:57:27;20.70;41.50
15384;DHT22;7790;53.022;12.968;2023-04-12T20:01:28;20.70;41.50
15384;DHT22;7790;53.022;12.968;2023-04-12T20:05:30;20.60;41.70
15384;DHT22;7790;53.022;12.968;2023-04-12T20:09:30;20.50;41.70
15384;DHT22;7790;53.022;12.968;2023-04-12T20:13:31;20.50;41.80
15384;DHT22;7790;53.022;12.968;2023-04-12T20:17:34;20.40;41.90
15384;DHT22;7790;53.022;12.968;2023-04-12T20:21:35;20.40;42.10
15384;DHT22;7790;53.022;12.968;2023-04-12T20:25:36;20.40;42.00
15384;DHT22;7790;53.022;12.968;2023-04-12T20:29:37;20.30;42.00
15384;DHT22;7790;53.022;12.968;2023-04-12T20:33:42;20.30;42.20
15384;DHT22;7790;53.022;12.968;2023-04-12T20:37:43;20.20;42.20
15384;DHT22;7790;53.022;12.968;2023-04-12T20:41:46;20.20;42.20
15384;DHT22;7790;53.022;12.968;2023-04-12T20:45:49;20.20;42.30
15384;DHT22;7790;53.022;12.968;2023-04-12T20:49:50;20.10;42.20
15384;DHT22;7790;53.022;12.968;2023-04-12T20:53:52;20.10;42.30
15384;DHT22;7790;53.022;12.968;2023-04-12T20:57:53;20.00;42.30
15384;DHT22;7790;53.022;12.968;2023-04-12T21:01:56;20.00;42.40
15384;DHT22;7790;53.022;12.968;2023-04-12T21:05:59;20.00;42.40
15384;DHT22;7790;53.022;12.968;2023-04-12T21:10:00;20.00;42.50
15384;DHT22;7790;53.022;12.968;2023-04-12T21:14:04;19.90;42.30
15384;DHT22;7790;53.022;12.968;2023-04-12T21:18:06;19.90;42.30
15384;DHT22;7790;53.022;12.968;2023-04-12T21:22:07;19.90;42.20
15384;DHT22;7790;53.022;12.968;2023-04-12T21:26:08;19.80;42.40
15384;DHT22;7790;53.022;12.968;2023-04-12T21:30:10;19.80;42.20
15384;DHT22;7790;53.022;12.968;2023-04-12T21:34:11;19.80;42.30
15384;DHT22;7790;53.022;12.968;2023-04-12T21:38:11;19.80;42.30
15384;DHT22;7790;53.022;12.968;2023-04-12T21:42:12;19.70;42.20
15384;DHT22;7790;53.022;12.968;2023-04-12T21:46:13;19.70;42.20
15384;DHT22;7790;53.022;12.968;2023-04-12T21:50:14;19.70;42.30
15384;DHT22;7790;53.022;12.968;2023-04-12T21:54:15;19.70;42.30
15384;DHT22;7790;53.022;12.968;2023-04-12T21:58:16;19.70;42.40
15384;DHT22;7790;53.022;12.968;2023-04-12T22:02:17;19.60;42.40
15384;DHT22;7790;53.022;12.968;2023-04-12T22:06:18;19.60;42.50
15384;DHT22;7790;53.022;12.968;2023-04-12T22:10:21;19.60;42.70
15384;DHT22;7790;53.022;12.968;2023-04-12T22:14:22;19.60;42.60
15384;DHT22;7790;53.022;12.968;2023-04-12T22:18:23;19.50;42.70
15384;DHT22;7790;53.022;12.968;2023-04-12T22:22:25;19.30;43.40
15384;DHT22;7790;53.022;12.968;2023-04-12T22:26:29;19.30;43.90
15384;DHT22;7790;53.022;12.968;2023-04-12T22:30:31;19.40;43.40
15384;DHT22;7790;53.022;12.968;2023-04-12T22:34:32;19.40;43.20
15384;DHT22;7790;53.022;12.968;2023-04-12T22:38:34;19.40;43.10
15384;DHT22;7790;53.022;12.968;2023-04-12T22:42:35;19.40;43.20
15384;DHT22;7790;53.022;12.968;2023-04-12T22:46:36;19.40;43.20
15384;DHT22;7790;53.022;12.968;2023-04-12T22:50:39;19.40;43.20
15384;DHT22;7790;53.022;12.968;2023-04-12T22:54:40;19.40;43.20
15384;DHT22;7790;53.022;12.968;2023-04-12T22:58:40;19.30;43.20
15384;DHT22;7790;53.022;12.968;2023-04-12T23:02:44;19.30;43.40
15384;DHT22;7790;53.022;12.968;2023-04-12T23:06:45;19.30;43.30
15384;DHT22;7790;53.022;12.968;2023-04-12T23:10:51;19.30;43.50
15384;DHT22;7790;53.022;12.968;2023-04-12T23:14:52;19.10;43.50
15384;DHT22;7790;53.022;12.968;2023-04-12T23:18:55;19.20;43.30
15384;DHT22;7790;53.022;12.968;2023-04-12T23:22:56;19.30;43.20
15384;DHT22;7790;53.022;12.968;2023-04-12T23:26:57;19.20;43.20
15384;DHT22;7790;53.022;12.968;2023-04-12T23:30:59;19.20;43.20
15384;DHT22;7790;53.022;12.968;2023-04-12T23:35:01;19.20;43.20
15384;DHT22;7790;53.022;12.968;2023-04-12T23:39:02;19.20;43.20
15384;DHT22;7790;53.022;12.968;2023-04-12T23:43:07;19.20;43.20
15384;DHT22;7790;53.022;12.968;2023-04-12T23:47:08;19.20;43.30
15384;DHT22;7790;53.022;12.968;2023-04-12T23:51:09;19.20;43.20
15384;DHT22;7790;53.022;12.968;2023-04-12T23:55:10;19.20;43.30
15384;DHT22;7790;53.022;12.968;2023-04-12T23:59:11;19.20;43.30
